Time;durP1;ratioP1;P1;durP2;ratioP2;P2;SDS_P1;SDS_P2;PMS_P1;PMS_P2;Temp;Humidity;BMP_temperature;BMP_pressure;BME280_temperature;BME280_humidity;BME280_pressure;Samples;Min_cycle;Max_cycle;Signal;HPM_P1;HPM_P2
2023/08/22 00:00:09;;;;;;;13.00;11.82;;;31.80;99.90;;;;;;5058979;28;20060;-69
2023/08/22 00:02:35;;;;;;;13.63;12.13;;;31.70;99.90;;;;;;5058962;28;20121;-69
2023/08/22 00:05:00;;;;;;;13.63;12.43;;;31.70;99.90;;;;;;5059060;28;20164;-68
2023/08/22 00:07:26;;;;;;;16.17;12.52;;;31.70;99.90;;;;;;5058583;28;20134;-69
2023/08/22 00:09:51;;;;;;;13.65;12.25;;;31.70;99.90;;;;;;5047303;28;20431;-69
2023/08/22 00:12:18;;;;;;;13.55;12.27;;;31.70;99.90;;;;;;5058817;28;20025;-68
2023/08/22 00:14:44;;;;;;;14.57;12.30;;;31.60;99.90;;;;;;5058800;28;20463;-68
2023/08/22 00:17:10;;;;;;;12.88;11.77;;;31.60;99.90;;;;;;5058793;28;20021;-69
2023/08/22 00:19:38;;;;;;;13.43;12.13;;;31.60;99.90;;;;;;5058817;28;20025;-68
2023/08/22 00:22:04;;;;;;;12.95;11.65;;;31.60;99.90;;;;;;5058701;28;20508;-68
2023/08/22 00:24:30;;;;;;;12.32;11.32;;;31.60;99.90;;;;;;5058834;28;20020;-69
2023/08/22 00:26:59;;;;;;;12.77;11.48;;;31.50;99.90;;;;;;5054424;28;20021;-69
2023/08/22 00:29:25;;;;;;;11.88;10.75;;;31.50;99.90;;;;;;5055845;28;20028;-69
2023/08/22 00:31:51;;;;;;;13.10;11.85;;;31.50;99.90;;;;;;5055518;28;20390;-68
2023/08/22 00:34:17;;;;;;;12.63;11.38;;;31.50;99.90;;;;;;5051711;28;20025;-69
2023/08/22 00:36:42;;;;;;;12.65;11.50;;;31.40;99.90;;;;;;5049227;28;20035;-70
2023/08/22 00:39:08;;;;;;;13.30;11.98;;;31.40;99.90;;;;;;5050802;28;20031;-69
2023/08/22 00:41:34;;;;;;;12.73;11.57;;;31.30;99.90;;;;;;5042190;28;20021;-69
2023/08/22 00:43:59;;;;;;;13.10;11.70;;;31.40;99.90;;;;;;5055376;28;20064;-69
2023/08/22 00:46:28;;;;;;;11.43;10.45;;;31.30;99.90;;;;;;5055218;28;20029;-69
2023/08/22 00:48:54;;;;;;;13.32;11.93;;;31.30;99.90;;;;;;5041263;28;20494;-68
2023/08/22 00:51:20;;;;;;;13.15;11.52;;;31.30;99.90;;;;;;5055069;28;20128;-68
2023/08/22 00:53:47;;;;;;;13.23;11.95;;;31.30;99.90;;;;;;5055038;28;20017;-68
2023/08/22 00:56:13;;;;;;;12.77;11.40;;;31.30;99.90;;;;;;5055311;28;20489;-68
2023/08/22 00:58:39;;;;;;;13.65;11.38;;;31.30;99.90;;;;;;5055429;28;20100;-68
2023/08/22 01:01:05;;;;;;;13.35;12.05;;;31.20;99.90;;;;;;5041168;28;20029;-68
2023/08/22 01:03:30;;;;;;;16.60;11.95;;;31.20;99.90;;;;;;5054854;28;20040;-67
2023/08/22 01:06:26;;;;;;;13.30;11.85;;;31.20;99.90;;;;;;5054762;28;20044;-67
2023/08/22 01:08:58;;;;;;;13.25;11.80;;;31.20;99.90;;;;;;5054940;28;20064;-68
2023/08/22 01:11:33;;;;;;;12.73;11.55;;;31.20;99.90;;;;;;5040080;28;20124;-68
2023/08/22 01:14:04;;;;;;;14.40;12.98;;;31.10;99.90;;;;;;5054197;28;20025;-68
2023/08/22 01:16:30;;;;;;;13.43;12.23;;;31.10;99.90;;;;;;5052246;28;20037;-68
2023/08/22 01:19:01;;;;;;;14.43;12.10;;;31.10;99.90;;;;;;5053479;28;20033;-68
2023/08/22 01:21:27;;;;;;;12.52;11.32;;;31.10;99.90;;;;;;5053563;28;20024;-69
2023/08/22 01:23:53;;;;;;;14.30;12.82;;;31.00;99.90;;;;;;5053559;28;20378;-68
2023/08/22 01:26:18;;;;;;;14.38;12.68;;;31.10;99.90;;;;;;5053072;28;20025;-69
2023/08/22 01:28:52;;;;;;;13.60;11.77;;;31.00;99.90;;;;;;5053176;28;20051;-69
2023/08/22 01:31:29;;;;;;;13.65;12.48;;;31.00;99.90;;;;;;5053158;28;20067;-69
2023/08/22 01:34:07;;;;;;;12.77;11.68;;;31.00;99.90;;;;;;5053119;28;20513;-69
2023/08/22 01:36:35;;;;;;;13.05;11.88;;;30.90;99.90;;;;;;5052897;28;20036;-69
2023/08/22 01:39:06;;;;;;;12.77;11.57;;;31.00;99.90;;;;;;5053044;28;20029;-69
2023/08/22 01:41:32;;;;;;;13.00;11.70;;;30.90;99.90;;;;;;5053070;28;20041;-68
2023/08/22 01:43:57;;;;;;;13.77;12.50;;;30.90;99.90;;;;;;5052810;28;20115;-68
2023/08/22 01:46:23;;;;;;;12.52;11.32;;;30.90;99.90;;;;;;5053061;28;20533;-68
2023/08/22 01:48:49;;;;;;;14.77;12.80;;;30.90;99.90;;;;;;5049070;28;20109;-68
2023/08/22 01:51:15;;;;;;;13.27;11.93;;;30.80;99.90;;;;;;5033697;28;20041;-68
2023/08/22 01:53:40;;;;;;;13.52;12.40;;;30.80;99.90;;;;;;5049897;28;20031;-67
2023/08/22 01:56:06;;;;;;;12.88;11.68;;;30.80;99.90;;;;;;5048860;28;20033;-68
2023/08/22 01:58:31;;;;;;;12.95;11.65;;;30.90;99.90;;;;;;5046036;28;20018;-68
2023/08/22 02:00:57;;;;;;;13.20;12.00;;;30.80;99.90;;;;;;5054139;28;20479;-68
2023/08/22 02:03:23;;;;;;;13.55;12.25;;;30.80;99.90;;;;;;5054019;28;20040;-68
2023/08/22 02:05:49;;;;;;;12.43;11.38;;;30.70;99.90;;;;;;5039612;28;20491;-68
2023/08/22 02:08:15;;;;;;;13.90;12.60;;;30.70;99.90;;;;;;5054088;28;20032;-68
2023/08/22 02:10:41;;;;;;;13.32;11.80;;;30.70;99.90;;;;;;5039378;28;20053;-68
2023/08/22 02:13:06;;;;;;;13.15;11.68;;;30.70;99.90;;;;;;5047369;28;20025;-68
2023/08/22 02:15:32;;;;;;;13.10;11.52;;;30.70;99.90;;;;;;5046011;28;20490;-68
2023/08/22 02:17:57;;;;;;;13.50;12.30;;;30.70;99.90;;;;;;5053479;28;20025;-68
2023/08/22 02:20:25;;;;;;;12.77;11.57;;;30.60;99.90;;;;;;5053788;28;20112;-68
2023/08/22 02:22:50;;;;;;;11.85;10.85;;;30.60;99.90;;;;;;5053442;28;20111;-68
2023/08/22 02:25:16;;;;;;;12.70;11.57;;;30.60;99.90;;;;;;5053335;28;20133;-69
2023/08/22 02:27:42;;;;;;;12.55;11.35;;;30.60;99.90;;;;;;5053598;28;20523;-69
2023/08/22 02:30:10;;;;;;;12.15;11.02;;;30.60;99.90;;;;;;5053766;28;20044;-68
2023/08/22 02:32:35;;;;;;;14.60;11.82;;;30.60;99.90;;;;;;5052038;28;20390;-68
2023/08/22 02:35:02;;;;;;;12.85;11.60;;;30.50;99.90;;;;;;5053332;28;20021;-68
2023/08/22 02:37:28;;;;;;;13.25;11.95;;;30.50;99.90;;;;;;5053147;28;20073;-68
2023/08/22 02:39:55;;;;;;;12.02;11.07;;;30.50;99.90;;;;;;5051829;28;20021;-68
2023/08/22 02:42:21;;;;;;;12.88;11.57;;;30.50;99.90;;;;;;5050029;28;20032;-69
2023/08/22 02:44:47;;;;;;;12.15;10.95;;;30.50;99.90;;;;;;5047287;28;20112;-68
2023/08/22 02:47:13;;;;;;;14.43;12.45;;;30.40;99.90;;;;;;5044870;28;20522;-68
2023/08/22 02:49:38;;;;;;;12.88;11.15;;;30.50;99.90;;;;;;5052605;28;20041;-68
2023/08/22 02:52:05;;;;;;;12.88;11.48;;;30.50;99.90;;;;;;5050257;28;20487;-68
2023/08/22 02:54:30;;;;;;;12.57;11.48;;;30.50;99.90;;;;;;5041726;28;20010;-68
2023/08/22 02:56:56;;;;;;;12.15;11.07;;;30.50;99.90;;;;;;5052740;28;20025;-68
2023/08/22 02:59:22;;;;;;;12.93;11.38;;;30.40;99.90;;;;;;5052913;28;20391;-68
2023/08/22 03:01:47;;;;;;;12.40;11.23;;;30.40;99.90;;;;;;5040713;28;20399;-68
2023/08/22 03:04:13;;;;;;;12.90;11.60;;;30.40;99.90;;;;;;5051387;28;20032;-68
2023/08/22 03:06:39;;;;;;;13.38;12.02;;;30.30;99.90;;;;;;5052784;28;20478;-68
2023/08/22 03:09:04;;;;;;;12.80;11.52;;;30.40;99.90;;;;;;5052716;28;20529;-68
2023/08/22 03:11:30;;;;;;;13.50;12.30;;;30.40;99.90;;;;;;5052677;28;20037;-68
2023/08/22 03:13:56;;;;;;;12.30;11.30;;;30.40;99.90;;;;;;5052930;28;20056;-68
2023/08/22 03:16:21;;;;;;;13.45;11.63;;;30.40;99.90;;;;;;5051372;28;20025;-68
2023/08/22 03:18:47;;;;;;;12.73;11.48;;;30.30;99.90;;;;;;5041105;28;20033;-68
2023/08/22 03:21:12;;;;;;;13.18;11.82;;;30.30;99.90;;;;;;5050404;28;20467;-69
2023/08/22 03:23:38;;;;;;;12.65;11.45;;;30.30;99.90;;;;;;5052744;28;20072;-68
2023/08/22 03:26:06;;;;;;;12.93;11.70;;;30.20;99.90;;;;;;5052521;28;20098;-69
2023/08/22 03:28:33;;;;;;;13.05;11.85;;;30.20;99.90;;;;;;5052640;28;20101;-68
2023/08/22 03:31:02;;;;;;;19.27;12.18;;;30.30;99.90;;;;;;5052451;28;20064;-67
2023/08/22 03:33:29;;;;;;;15.57;11.48;;;30.30;99.90;;;;;;5052596;28;20017;-68
2023/08/22 03:35:56;;;;;;;13.02;11.77;;;30.30;99.90;;;;;;5052612;28;20051;-68
2023/08/22 03:38:22;;;;;;;12.70;11.45;;;30.30;99.90;;;;;;5052445;28;20063;-69
2023/08/22 03:40:48;;;;;;;12.43;11.23;;;30.20;99.90;;;;;;5052754;28;20060;-69
2023/08/22 03:43:15;;;;;;;13.43;11.35;;;30.20;99.90;;;;;;5050780;28;20021;-69
2023/08/22 03:45:42;;;;;;;14.80;11.95;;;30.20;99.90;;;;;;5052444;28;20398;-69
2023/08/22 03:48:07;;;;;;;13.52;11.82;;;30.20;99.90;;;;;;5044574;28;20056;-69
2023/08/22 03:50:33;;;;;;;13.18;11.93;;;30.20;99.90;;;;;;5052609;28;20127;-68
2023/08/22 03:52:59;;;;;;;12.60;11.40;;;30.20;99.90;;;;;;5040155;28;20022;-68
2023/08/22 03:55:25;;;;;;;15.50;12.10;;;30.10;99.90;;;;;;5036803;28;20021;-69
2023/08/22 03:57:50;;;;;;;13.35;11.85;;;30.10;99.90;;;;;;5052461;28;20032;-68
2023/08/22 04:00:16;;;;;;;15.82;11.88;;;30.10;99.90;;;;;;5052236;28;20499;-68
2023/08/22 04:02:42;;;;;;;14.15;12.85;;;30.10;99.90;;;;;;5054856;28;20032;-67
2023/08/22 04:05:07;;;;;;;13.40;12.10;;;30.10;99.90;;;;;;5055746;28;20029;-68
2023/08/22 04:07:33;;;;;;;12.60;11.50;;;30.10;99.90;;;;;;5056088;28;20029;-69
2023/08/22 04:09:59;;;;;;;12.93;11.75;;;30.10;99.90;;;;;;5056256;28;20124;-69
2023/08/22 04:12:24;;;;;;;12.88;11.57;;;30.00;99.90;;;;;;5055892;28;20078;-69
2023/08/22 04:14:50;;;;;;;13.02;11.75;;;30.00;99.90;;;;;;5056098;28;20021;-68
2023/08/22 04:17:16;;;;;;;12.85;11.85;;;30.00;99.90;;;;;;5054485;28;20048;-68
2023/08/22 04:19:42;;;;;;;13.50;12.30;;;30.00;99.90;;;;;;5055872;28;20021;-68
2023/08/22 04:22:07;;;;;;;13.40;12.20;;;30.10;99.90;;;;;;5055775;28;20017;-69
2023/08/22 04:24:33;;;;;;;13.95;12.32;;;30.00;99.90;;;;;;5054419;28;20020;-69
2023/08/22 04:26:59;;;;;;;14.32;12.88;;;30.00;99.90;;;;;;5055897;28;20056;-69
2023/08/22 04:29:24;;;;;;;14.90;12.15;;;30.00;99.90;;;;;;5047198;28;20467;-69
2023/08/22 04:31:50;;;;;;;13.48;12.07;;;29.90;99.90;;;;;;5055569;28;20487;-69
2023/08/22 04:34:16;;;;;;;12.80;11.68;;;29.90;99.90;;;;;;5055424;28;20387;-69
2023/08/22 04:36:42;;;;;;;15.02;11.68;;;29.90;99.90;;;;;;5055795;28;20033;-68
2023/08/22 04:39:07;;;;;;;13.38;12.07;;;29.80;99.90;;;;;;5054059;28;20021;-69
2023/08/22 04:41:33;;;;;;;11.98;11.02;;;29.70;99.90;;;;;;5055396;28;20025;-69
2023/08/22 04:43:59;;;;;;;12.82;11.52;;;29.80;99.90;;;;;;5055453;28;20025;-68
2023/08/22 04:46:24;;;;;;;12.63;11.57;;;29.80;99.90;;;;;;5040923;28;20423;-68
2023/08/22 04:48:50;;;;;;;13.88;12.43;;;29.90;99.90;;;;;;5051969;28;20060;-68
2023/08/22 04:51:16;;;;;;;14.13;12.52;;;29.90;99.90;;;;;;5046700;28;20475;-69
2023/08/22 04:53:42;;;;;;;14.30;11.93;;;29.90;99.90;;;;;;5046333;28;20036;-68
2023/08/22 04:56:08;;;;;;;15.75;12.10;;;29.80;99.90;;;;;;5045216;28;20025;-68
2023/08/22 04:58:34;;;;;;;13.82;12.00;;;29.80;99.90;;;;;;5041058;28;20104;-68
2023/08/22 05:00:59;;;;;;;16.20;12.73;;;29.90;99.90;;;;;;5053971;28;20022;-68
2023/08/22 05:03:25;;;;;;;14.07;12.80;;;29.90;99.90;;;;;;5035862;28;20026;-68
2023/08/22 05:05:51;;;;;;;13.55;12.25;;;29.90;99.90;;;;;;5052064;28;20068;-68
2023/08/22 05:08:17;;;;;;;13.45;12.05;;;29.90;99.90;;;;;;5054985;28;20025;-68
2023/08/22 05:10:45;;;;;;;14.38;12.95;;;29.80;99.90;;;;;;5054924;28;20045;-68
2023/08/22 05:13:10;;;;;;;13.57;12.32;;;29.80;99.90;;;;;;5054457;28;20071;-69
2023/08/22 05:15:36;;;;;;;13.15;11.85;;;29.80;99.90;;;;;;5055030;28;20036;-69
2023/08/22 05:18:02;;;;;;;14.45;13.02;;;29.80;99.90;;;;;;5054734;28;20025;-69
2023/08/22 05:20:28;;;;;;;13.93;12.40;;;29.80;99.90;;;;;;5053530;28;20075;-69
2023/08/22 05:22:54;;;;;;;16.73;12.88;;;29.80;99.90;;;;;;5054562;28;20029;-69
2023/08/22 05:25:19;;;;;;;17.20;12.80;;;29.60;99.90;;;;;;5054616;28;20064;-69
2023/08/22 05:27:45;;;;;;;15.75;12.68;;;29.60;99.90;;;;;;5054483;28;20044;-69
2023/08/22 05:30:11;;;;;;;13.18;11.82;;;29.60;99.90;;;;;;5054712;28;20047;-69
2023/08/22 05:32:36;;;;;;;14.88;12.65;;;29.70;99.90;;;;;;5054543;28;20029;-69
2023/08/22 05:35:02;;;;;;;14.65;12.35;;;29.70;99.90;;;;;;5054327;28;20443;-69
2023/08/22 05:37:28;;;;;;;14.00;12.57;;;29.70;99.90;;;;;;5054476;28;20029;-68
2023/08/22 05:39:53;;;;;;;14.07;12.73;;;29.80;99.90;;;;;;5054199;28;20028;-69
2023/08/22 05:42:19;;;;;;;13.45;12.32;;;29.80;99.90;;;;;;5054481;28;20107;-69
2023/08/22 05:44:45;;;;;;;14.70;13.18;;;29.80;99.90;;;;;;5054364;28;20036;-68
2023/08/22 05:47:10;;;;;;;13.75;12.45;;;29.80;99.90;;;;;;5054431;28;20029;-68
2023/08/22 05:49:54;;;;;;;13.90;12.50;;;29.80;99.90;;;;;;5054002;28;20478;-68
2023/08/22 05:52:20;;;;;;;14.25;12.95;;;29.80;99.90;;;;;;5041315;28;20033;-68
2023/08/22 05:54:45;;;;;;;15.57;13.90;;;29.70;99.90;;;;;;5054064;28;20061;-68
2023/08/22 05:57:11;;;;;;;15.65;13.32;;;29.80;99.90;;;;;;5054133;28;20110;-68
2023/08/22 05:59:37;;;;;;;18.27;13.00;;;29.90;99.90;;;;;;5054197;28;20475;-68
2023/08/22 06:02:03;;;;;;;14.20;13.02;;;29.90;99.90;;;;;;5044480;28;20407;-68
2023/08/22 06:04:28;;;;;;;13.35;11.93;;;29.90;99.90;;;;;;5053921;28;20025;-68
2023/08/22 06:06:54;;;;;;;12.68;11.20;;;29.90;99.90;;;;;;5053681;28;20045;-68
2023/08/22 06:09:20;;;;;;;14.65;11.65;;;29.90;99.90;;;;;;5054204;28;20023;-68
2023/08/22 06:11:46;;;;;;;12.73;11.27;;;29.90;99.90;;;;;;5053614;28;20552;-69
2023/08/22 06:14:12;;;;;;;13.45;11.57;;;30.00;99.90;;;;;;5053950;28;20025;-68
2023/08/22 06:16:37;;;;;;;14.07;12.18;;;30.00;99.90;;;;;;5054005;28;20032;-68
2023/08/22 06:19:03;;;;;;;13.88;12.32;;;30.00;99.90;;;;;;5052442;28;20047;-69
2023/08/22 06:21:29;;;;;;;12.15;11.07;;;30.10;99.90;;;;;;5053561;28;20363;-68
2023/08/22 06:23:54;;;;;;;13.27;11.90;;;30.00;99.90;;;;;;5052787;28;20106;-68
2023/08/22 06:26:21;;;;;;;13.07;11.27;;;30.00;99.90;;;;;;5053305;28;20067;-68
2023/08/22 06:28:47;;;;;;;13.52;12.00;;;30.10;99.90;;;;;;5053442;28;20120;-68
2023/08/22 06:31:13;;;;;;;13.55;12.35;;;30.10;99.90;;;;;;5053146;28;20136;-68
2023/08/22 06:33:39;;;;;;;13.60;11.90;;;30.10;99.90;;;;;;5053482;28;20024;-68
2023/08/22 06:36:05;;;;;;;13.65;12.27;;;30.10;99.90;;;;;;5053276;28;20087;-68
2023/08/22 06:38:31;;;;;;;14.02;12.57;;;30.10;99.90;;;;;;5053532;28;20029;-68
2023/08/22 06:40:56;;;;;;;13.10;11.70;;;30.10;99.90;;;;;;5053206;28;20060;-68
2023/08/22 06:43:22;;;;;;;13.30;12.05;;;30.20;99.90;;;;;;5051848;28;20048;-68
2023/08/22 06:45:48;;;;;;;13.38;12.35;;;30.20;99.90;;;;;;5053188;28;20025;-69
2023/08/22 06:48:16;;;;;;;13.30;12.00;;;30.20;99.90;;;;;;5049916;28;20018;-69
2023/08/22 06:50:42;;;;;;;13.45;12.05;;;30.20;99.90;;;;;;5042416;28;20038;-69
2023/08/22 06:53:07;;;;;;;15.75;11.90;;;30.20;99.90;;;;;;5040652;28;20032;-69
2023/08/22 06:55:33;;;;;;;14.88;12.00;;;30.20;99.90;;;;;;5050189;28;20360;-69
2023/08/22 06:57:58;;;;;;;16.27;12.43;;;30.30;99.90;;;;;;5051270;28;20543;-68
2023/08/22 07:00:24;;;;;;;13.13;11.75;;;30.30;99.90;;;;;;5053050;28;20115;-67
2023/08/22 07:02:50;;;;;;;12.85;11.55;;;30.30;99.90;;;;;;5050943;28;20041;-68
2023/08/22 07:05:17;;;;;;;13.63;12.30;;;30.40;99.90;;;;;;5052646;28;20024;-67
2023/08/22 07:07:43;;;;;;;13.60;12.20;;;30.30;99.90;;;;;;5039596;28;20029;-68
2023/08/22 07:10:10;;;;;;;17.63;13.40;;;30.40;99.90;;;;;;5051840;28;20452;-68
2023/08/22 07:12:36;;;;;;;14.57;12.75;;;30.50;99.90;;;;;;5052837;28;20036;-68
2023/08/22 07:15:04;;;;;;;14.25;12.90;;;30.40;99.90;;;;;;5051413;28;20382;-68
2023/08/22 07:17:30;;;;;;;14.88;11.98;;;30.40;99.90;;;;;;5051534;28;20123;-68
2023/08/22 07:19:55;;;;;;;14.10;12.57;;;30.40;99.90;;;;;;5052950;28;20201;-68
2023/08/22 07:22:22;;;;;;;18.17;13.30;;;30.50;99.90;;;;;;5052656;28;20021;-69
2023/08/22 07:24:47;;;;;;;14.57;12.40;;;30.50;99.90;;;;;;5052664;28;20061;-69
2023/08/22 07:27:14;;;;;;;14.15;12.75;;;30.50;99.90;;;;;;5052482;28;20569;-69
2023/08/22 07:29:40;;;;;;;14.82;13.40;;;30.50;99.90;;;;;;5052554;28;20467;-69
2023/08/22 07:32:08;;;;;;;13.15;11.80;;;30.60;99.90;;;;;;5052414;28;20035;-67
2023/08/22 07:34:34;;;;;;;16.45;12.48;;;30.50;99.90;;;;;;5053049;28;20013;-68
2023/08/22 07:36:59;;;;;;;14.90;12.93;;;30.60;99.90;;;;;;5056660;28;20025;-67
2023/08/22 07:39:27;;;;;;;13.50;12.10;;;30.60;99.90;;;;;;5056639;28;20013;-69
2023/08/22 07:41:52;;;;;;;14.70;13.13;;;30.60;99.90;;;;;;5056500;28;20021;-68
2023/08/22 07:44:18;;;;;;;18.83;13.65;;;30.70;99.90;;;;;;5056638;28;20370;-68
2023/08/22 07:46:44;;;;;;;13.57;12.27;;;30.70;99.90;;;;;;5056450;28;20108;-68
2023/08/22 07:49:09;;;;;;;13.88;12.43;;;30.70;99.90;;;;;;5056323;28;20033;-68
2023/08/22 07:51:36;;;;;;;15.20;13.55;;;30.80;99.90;;;;;;5056238;28;20052;-68
2023/08/22 07:54:05;;;;;;;16.75;12.57;;;30.80;99.90;;;;;;5056124;28;20013;-68
2023/08/22 07:56:30;;;;;;;14.98;12.73;;;30.80;99.90;;;;;;5056307;28;20025;-68
2023/08/22 07:58:57;;;;;;;16.60;12.98;;;30.90;99.90;;;;;;5055292;28;20675;-68
2023/08/22 08:01:22;;;;;;;14.02;12.77;;;30.80;99.90;;;;;;5055512;28;20025;-68
2023/08/22 08:03:48;;;;;;;14.07;12.68;;;30.80;99.90;;;;;;5055862;28;20031;-68
2023/08/22 08:06:14;;;;;;;14.27;11.93;;;30.90;99.90;;;;;;5038338;28;20507;-68
2023/08/22 08:08:39;;;;;;;15.60;12.70;;;31.00;99.90;;;;;;5051341;28;20444;-68
2023/08/22 08:11:05;;;;;;;12.80;11.60;;;31.00;99.90;;;;;;5043697;28;20563;-69
2023/08/22 08:13:31;;;;;;;15.95;12.32;;;31.00;99.90;;;;;;5056039;28;20375;-69
2023/08/22 08:15:57;;;;;;;20.92;13.35;;;31.00;99.90;;;;;;5055820;28;20382;-68
2023/08/22 08:18:22;;;;;;;13.90;12.52;;;31.00;99.90;;;;;;5055996;28;20029;-69
2023/08/22 08:20:48;;;;;;;14.45;12.52;;;31.10;99.90;;;;;;5056013;28;20029;-68
2023/08/22 08:23:14;;;;;;;14.82;13.30;;;31.10;99.90;;;;;;5055839;28;20025;-69
2023/08/22 08:25:39;;;;;;;16.00;12.57;;;31.10;99.90;;;;;;5055608;28;20031;-68
2023/08/22 08:28:05;;;;;;;15.82;13.18;;;31.20;99.90;;;;;;5055710;28;20114;-68
2023/08/22 08:30:32;;;;;;;13.80;12.40;;;31.20;99.90;;;;;;5055530;28;20036;-68
2023/08/22 08:32:57;;;;;;;14.65;12.68;;;31.30;99.90;;;;;;5055697;28;20021;-68
2023/08/22 08:35:23;;;;;;;14.93;12.93;;;31.30;99.90;;;;;;5055784;28;20033;-68
2023/08/22 08:37:49;;;;;;;14.95;13.50;;;31.30;99.90;;;;;;5046616;28;20100;-68
2023/08/22 08:40:15;;;;;;;14.68;12.27;;;31.40;99.90;;;;;;5054194;28;20457;-68
2023/08/22 08:42:41;;;;;;;19.30;13.95;;;31.40;99.90;;;;;;5054182;28;20096;-68
2023/08/22 08:45:08;;;;;;;14.68;12.93;;;31.40;99.90;;;;;;5042811;28;20037;-67
2023/08/22 08:47:34;;;;;;;14.35;12.95;;;31.50;99.90;;;;;;5054356;28;20029;-69
2023/08/22 08:50:01;;;;;;;14.55;13.15;;;31.50;99.90;;;;;;5055041;28;20033;-69
2023/08/22 08:52:29;;;;;;;19.33;12.82;;;31.50;99.90;;;;;;5055590;28;20025;-69
2023/08/22 08:54:57;;;;;;;14.43;12.63;;;31.60;99.90;;;;;;5051207;28;20045;-68
2023/08/22 08:57:23;;;;;;;14.25;12.95;;;31.60;99.90;;;;;;5045062;28;20053;-69
2023/08/22 08:59:48;;;;;;;16.60;14.00;;;31.70;99.90;;;;;;5050294;28;20060;-69
2023/08/22 09:02:16;;;;;;;18.33;13.15;;;31.70;99.90;;;;;;5045488;28;20033;-68
2023/08/22 09:04:42;;;;;;;14.27;12.95;;;31.80;99.90;;;;;;5050798;28;20023;-68
2023/08/22 09:07:08;;;;;;;15.60;13.13;;;31.80;99.90;;;;;;5054850;28;20041;-68
2023/08/22 09:09:35;;;;;;;16.98;15.00;;;31.90;99.90;;;;;;5054753;28;20032;-68
2023/08/22 09:12:05;;;;;;;16.08;14.32;;;31.90;99.90;;;;;;5055180;28;20382;-68
2023/08/22 09:14:31;;;;;;;16.70;14.93;;;32.00;99.90;;;;;;5054704;28;20092;-68
2023/08/22 09:17:01;;;;;;;15.93;14.32;;;32.00;99.90;;;;;;5044327;28;20048;-68
2023/08/22 09:19:31;;;;;;;17.10;13.48;;;32.10;99.90;;;;;;5052350;28;20375;-68
2023/08/22 09:21:59;;;;;;;16.27;14.60;;;32.10;99.90;;;;;;5054728;28;20103;-68
2023/08/22 09:24:26;;;;;;;14.55;13.18;;;32.10;99.90;;;;;;5054670;28;20017;-68
2023/08/22 09:26:52;;;;;;;16.27;14.55;;;32.10;99.90;;;;;;5054259;28;20036;-68
2023/08/22 09:29:32;;;;;;;17.17;15.23;;;32.20;99.90;;;;;;5054537;28;20025;-68
2023/08/22 09:32:01;;;;;;;17.80;13.65;;;32.10;99.90;;;;;;5054463;28;20040;-68
2023/08/22 09:34:26;;;;;;;16.02;13.82;;;32.20;99.90;;;;;;5054459;28;20060;-68
2023/08/22 09:36:56;;;;;;;14.88;13.30;;;32.20;99.90;;;;;;5054563;28;20036;-67
2023/08/22 09:39:23;;;;;;;17.25;14.82;;;32.30;99.90;;;;;;5054499;28;20094;-67
2023/08/22 09:41:53;;;;;;;14.93;13.48;;;32.30;99.90;;;;;;5054218;28;20017;-68
2023/08/22 09:44:23;;;;;;;14.57;13.13;;;32.40;99.90;;;;;;5041740;28;20056;-67
2023/08/22 09:46:51;;;;;;;15.02;13.55;;;32.50;99.90;;;;;;5052315;28;20095;-68
2023/08/22 09:49:17;;;;;;;15.38;13.77;;;32.50;99.90;;;;;;5054188;28;20152;-68
2023/08/22 09:51:47;;;;;;;16.15;14.45;;;32.60;99.90;;;;;;5053982;28;20116;-68
2023/08/22 09:54:14;;;;;;;16.60;14.93;;;32.70;99.90;;;;;;5045402;28;20506;-68
2023/08/22 09:56:40;;;;;;;15.52;13.93;;;32.60;99.90;;;;;;5049022;28;20036;-68
2023/08/22 09:59:06;;;;;;;16.70;14.40;;;32.50;99.90;;;;;;5053921;28;20029;-68
2023/08/22 10:01:38;;;;;;;14.20;12.82;;;32.70;99.90;;;;;;5053893;28;20032;-68
2023/08/22 10:04:06;;;;;;;14.27;12.98;;;32.80;99.90;;;;;;5053877;28;20021;-68
2023/08/22 10:06:34;;;;;;;15.35;13.68;;;33.00;99.90;;;;;;5053721;28;20076;-68
2023/08/22 10:09:07;;;;;;;15.50;14.05;;;32.90;99.90;;;;;;5053987;28;20021;-68
2023/08/22 10:11:55;;;;;;;15.63;14.18;;;33.00;99.90;;;;;;5051828;28;20029;-69
2023/08/22 10:14:43;;;;;;;16.05;14.50;;;33.00;99.90;;;;;;5053189;28;20044;-68
2023/08/22 10:17:13;;;;;;;14.85;13.55;;;33.00;99.90;;;;;;5053930;28;20112;-68
2023/08/22 10:19:42;;;;;;;15.18;13.02;;;33.10;99.90;;;;;;5046777;28;20065;-68
2023/08/22 10:22:14;;;;;;;16.00;13.65;;;33.20;99.90;;;;;;5045799;28;20040;-68
2023/08/22 10:24:46;;;;;;;15.73;14.20;;;33.20;99.90;;;;;;5046235;28;20017;-68
2023/08/22 10:27:16;;;;;;;17.08;15.35;;;33.30;99.90;;;;;;5053456;28;20029;-68
2023/08/22 10:29:47;;;;;;;17.67;14.52;;;33.40;99.90;;;;;;5053348;28;20025;-68
2023/08/22 10:32:18;;;;;;;15.43;13.90;;;33.30;99.90;;;;;;5053470;28;20075;-68
2023/08/22 10:34:44;;;;;;;15.68;13.98;;;33.40;99.90;;;;;;5053306;28;20009;-68
2023/08/22 10:37:20;;;;;;;18.33;16.42;;;33.40;99.90;;;;;;5053553;28;20033;-68
2023/08/22 10:39:49;;;;;;;18.25;16.17;;;33.40;99.90;;;;;;5053485;28;20109;-68
2023/08/22 10:42:19;;;;;;;16.90;15.40;;;33.50;99.90;;;;;;5053503;28;20040;-68
2023/08/22 10:44:52;;;;;;;17.63;15.88;;;33.50;99.90;;;;;;5053242;28;20074;-68
2023/08/22 10:47:18;;;;;;;;;;;33.60;99.90;;;;;;5043114;28;20030;-69
2023/08/22 10:49:47;;;;;;;18.27;16.38;;;33.50;99.90;;;;;;5049861;28;19977;-69
2023/08/22 10:52:13;;;;;;;18.67;15.77;;;33.60;99.90;;;;;;5053402;28;20021;-69
2023/08/22 10:55:00;;;;;;;17.50;16.00;;;33.70;99.90;;;;;;5052947;28;20025;-69
2023/08/22 10:57:28;;;;;;;17.33;15.55;;;34.00;99.90;;;;;;5052809;28;20115;-69
2023/08/22 10:59:59;;;;;;;15.93;14.60;;;33.90;99.90;;;;;;5049723;28;20021;-69
2023/08/22 11:02:30;;;;;;;16.77;15.25;;;34.00;99.90;;;;;;5041366;28;20445;-68
2023/08/22 11:05:01;;;;;;;18.35;16.55;;;34.10;99.90;;;;;;5049953;28;20483;-68
2023/08/22 11:07:28;;;;;;;17.42;15.75;;;34.10;99.90;;;;;;5042898;28;20041;-68
2023/08/22 11:09:54;;;;;;;16.33;14.82;;;34.20;99.90;;;;;;5052269;28;20021;-68
2023/08/22 11:12:27;;;;;;;18.08;16.27;;;34.30;99.90;;;;;;5052762;28;20021;-68
2023/08/22 11:14:54;;;;;;;17.30;15.52;;;34.30;99.90;;;;;;5051626;28;20025;-68
2023/08/22 11:17:21;;;;;;;18.38;16.67;;;34.50;99.90;;;;;;5052883;28;20056;-68
2023/08/22 11:19:49;;;;;;;17.02;15.32;;;34.50;99.90;;;;;;5052816;28;20021;-68
2023/08/22 11:22:15;;;;;;;18.73;15.68;;;34.60;99.90;;;;;;5052508;28;20029;-69
2023/08/22 11:24:42;;;;;;;17.45;15.75;;;34.70;99.90;;;;;;5053015;28;20044;-69
2023/08/22 11:27:07;;;;;;;17.00;15.43;;;34.70;99.90;;;;;;5052494;28;20497;-69
2023/08/22 11:29:42;;;;;;;16.67;15.10;;;34.70;99.90;;;;;;5052676;28;20029;-68
2023/08/22 11:32:27;;;;;;;16.92;15.52;;;34.70;99.90;;;;;;5052671;28;20041;-68
2023/08/22 11:35:00;;;;;;;16.20;14.63;;;34.80;99.90;;;;;;5042576;28;20115;-68
2023/08/22 11:37:27;;;;;;;16.30;14.80;;;35.00;99.90;;;;;;5049770;28;20020;-69
2023/08/22 11:39:53;;;;;;;16.42;14.88;;;35.10;99.90;;;;;;5051308;28;20029;-68
2023/08/22 11:42:21;;;;;;;15.88;14.57;;;35.20;99.90;;;;;;5052366;28;20127;-69
2023/08/22 11:45:10;;;;;;;15.93;14.50;;;35.10;99.90;;;;;;5052592;28;20029;-69
2023/08/22 11:47:56;;;;;;;15.05;13.63;;;35.30;99.90;;;;;;5047227;28;20040;-68
2023/08/22 11:50:29;;;;;;;14.88;13.57;;;35.50;99.90;;;;;;5052458;28;20359;-68
2023/08/22 11:53:11;;;;;;;15.80;14.23;;;35.50;99.90;;;;;;5052653;28;20107;-68
2023/08/22 11:55:40;;;;;;;16.65;15.32;;;35.60;99.90;;;;;;5052483;28;20079;-68
2023/08/22 11:58:09;;;;;;;14.82;13.57;;;35.80;99.90;;;;;;5052401;28;20055;-69
2023/08/22 12:00:35;;;;;;;15.20;13.82;;;36.00;99.90;;;;;;5052633;28;20032;-69
2023/08/22 12:03:05;;;;;;;14.98;13.38;;;;;;;;;;5052202;28;20375;-69
2023/08/22 12:05:38;;;;;;;14.30;13.10;;;36.70;99.90;;;;;;5052223;28;20475;-68
2023/08/22 12:08:07;;;;;;;15.43;13.93;;;;;;;;;;5052185;28;20049;-69
2023/08/22 12:10:41;;;;;;;15.40;14.20;;;45.90;99.90;;;;;;5052125;28;20040;-69
2023/08/22 12:13:08;;;;;;;15.93;14.88;;;48.40;99.90;;;;;;5052346;28;20392;-69
2023/08/22 12:15:34;;;;;;;15.07;13.85;;;48.20;99.90;;;;;;5051540;28;20021;-69
2023/08/22 12:18:00;;;;;;;16.10;15.00;;;49.50;99.90;;;;;;5052193;28;20044;-69
2023/08/22 12:20:25;;;;;;;15.52;14.30;;;48.70;99.90;;;;;;5052370;28;20108;-68
2023/08/22 12:22:51;;;;;;;16.55;15.27;;;49.40;99.90;;;;;;5054664;28;20060;-68
2023/08/22 12:25:17;;;;;;;14.85;13.65;;;;;;;;;;5041937;28;20059;-69
2023/08/22 12:27:43;;;;;;;17.10;15.50;;;48.70;99.90;;;;;;5056104;28;20079;-69